sensor_id;sensor_type;location;lat;lon;timestamp;P1;durP1;ratioP1;P2;durP2;ratioP2
26540;SDS011;14206;50.202;10.948;2022-09-09T00:09:45;0.40;;;0.40;;
26540;SDS011;14206;50.202;10.948;2022-09-09T00:12:17;1.08;;;0.40;;
26540;SDS011;14206;50.202;10.948;2022-09-09T00:14:51;0.93;;;0.40;;
26540;SDS011;14206;50.202;10.948;2022-09-09T00:17:31;0.40;;;0.40;;
26540;SDS011;14206;50.202;10.948;2022-09-09T00:23:12;0.47;;;0.40;;
26540;SDS011;14206;50.202;10.948;2022-09-09T00:28:24;0.60;;;0.60;;
26540;SDS011;14206;50.202;10.948;2022-09-09T00:30:53;0.50;;;0.50;;
26540;SDS011;14206;50.202;10.948;2022-09-09T00:33:23;0.70;;;0.50;;
26540;SDS011;14206;50.202;10.948;2022-09-09T00:36:01;0.52;;;0.52;;
26540;SDS011;14206;50.202;10.948;2022-09-09T00:43:55;0.40;;;0.40;;
26540;SDS011;14206;50.202;10.948;2022-09-09T00:57:39;0.87;;;0.60;;
26540;SDS011;14206;50.202;10.948;2022-09-09T01:05:54;0.57;;;0.57;;
26540;SDS011;14206;50.202;10.948;2022-09-09T01:20:19;1.02;;;0.50;;
26540;SDS011;14206;50.202;10.948;2022-09-09T01:28:20;0.75;;;0.50;;
26540;SDS011;14206;50.202;10.948;2022-09-09T01:30:54;0.63;;;0.63;;
26540;SDS011;14206;50.202;10.948;2022-09-09T01:33:24;0.88;;;0.60;;
26540;SDS011;14206;50.202;10.948;2022-09-09T01:36:02;0.50;;;0.50;;
26540;SDS011;14206;50.202;10.948;2022-09-09T01:38:37;0.55;;;0.50;;
26540;SDS011;14206;50.202;10.948;2022-09-09T01:41:04;1.02;;;0.52;;
26540;SDS011;14206;50.202;10.948;2022-09-09T01:43:40;0.60;;;0.60;;
26540;SDS011;14206;50.202;10.948;2022-09-09T01:46:08;0.57;;;0.55;;
26540;SDS011;14206;50.202;10.948;2022-09-09T01:48:40;0.50;;;0.50;;
26540;SDS011;14206;50.202;10.948;2022-09-09T01:51:09;0.82;;;0.60;;
26540;SDS011;14206;50.202;10.948;2022-09-09T01:53:38;0.63;;;0.60;;
26540;SDS011;14206;50.202;10.948;2022-09-09T02:02:13;0.60;;;0.60;;
26540;SDS011;14206;50.202;10.948;2022-09-09T02:04:54;1.10;;;0.70;;
26540;SDS011;14206;50.202;10.948;2022-09-09T02:07:40;0.70;;;0.60;;
26540;SDS011;14206;50.202;10.948;2022-09-09T02:13:13;0.55;;;0.50;;
26540;SDS011;14206;50.202;10.948;2022-09-09T02:15:45;0.98;;;0.52;;
26540;SDS011;14206;50.202;10.948;2022-09-09T02:18:18;0.65;;;0.63;;
26540;SDS011;14206;50.202;10.948;2022-09-09T02:20:51;0.47;;;0.40;;
26540;SDS011;14206;50.202;10.948;2022-09-09T02:23:19;1.50;;;0.50;;
26540;SDS011;14206;50.202;10.948;2022-09-09T02:25:51;0.77;;;0.50;;
26540;SDS011;14206;50.202;10.948;2022-09-09T02:28:22;0.40;;;0.40;;
26540;SDS011;14206;50.202;10.948;2022-09-09T02:30:52;0.73;;;0.50;;
26540;SDS011;14206;50.202;10.948;2022-09-09T02:33:30;1.65;;;0.70;;
26540;SDS011;14206;50.202;10.948;2022-09-09T02:36:08;0.63;;;0.43;;
26540;SDS011;14206;50.202;10.948;2022-09-09T02:38:37;0.80;;;0.60;;
26540;SDS011;14206;50.202;10.948;2022-09-09T02:41:12;0.75;;;0.60;;
26540;SDS011;14206;50.202;10.948;2022-09-09T02:43:39;0.95;;;0.50;;
26540;SDS011;14206;50.202;10.948;2022-09-09T02:49:03;0.57;;;0.50;;
26540;SDS011;14206;50.202;10.948;2022-09-09T02:52:41;0.73;;;0.47;;
26540;SDS011;14206;50.202;10.948;2022-09-09T02:57:57;0.40;;;0.40;;
26540;SDS011;14206;50.202;10.948;2022-09-09T03:00:27;1.20;;;0.70;;
26540;SDS011;14206;50.202;10.948;2022-09-09T03:02:59;0.50;;;0.50;;
26540;SDS011;14206;50.202;10.948;2022-09-09T03:05:32;1.45;;;0.50;;
26540;SDS011;14206;50.202;10.948;2022-09-09T03:07:59;0.60;;;0.55;;
26540;SDS011;14206;50.202;10.948;2022-09-09T03:10:26;0.45;;;0.45;;
26540;SDS011;14206;50.202;10.948;2022-09-09T03:12:53;0.60;;;0.50;;
26540;SDS011;14206;50.202;10.948;2022-09-09T03:15:20;0.65;;;0.50;;
26540;SDS011;14206;50.202;10.948;2022-09-09T03:17:47;0.43;;;0.43;;
26540;SDS011;14206;50.202;10.948;2022-09-09T03:20:14;0.50;;;0.50;;
26540;SDS011;14206;50.202;10.948;2022-09-09T03:22:41;0.57;;;0.57;;
26540;SDS011;14206;50.202;10.948;2022-09-09T03:25:08;0.50;;;0.50;;
26540;SDS011;14206;50.202;10.948;2022-09-09T03:27:35;1.25;;;0.50;;
26540;SDS011;14206;50.202;10.948;2022-09-09T03:30:03;0.50;;;0.50;;
26540;SDS011;14206;50.202;10.948;2022-09-09T03:32:31;0.88;;;0.70;;
26540;SDS011;14206;50.202;10.948;2022-09-09T03:35:03;0.60;;;0.60;;
26540;SDS011;14206;50.202;10.948;2022-09-09T03:37:37;1.00;;;0.52;;
26540;SDS011;14206;50.202;10.948;2022-09-09T03:40:05;0.80;;;0.63;;
26540;SDS011;14206;50.202;10.948;2022-09-09T03:42:33;1.02;;;0.80;;
26540;SDS011;14206;50.202;10.948;2022-09-09T03:45:01;0.70;;;0.50;;
26540;SDS011;14206;50.202;10.948;2022-09-09T03:47:28;0.60;;;0.60;;
26540;SDS011;14206;50.202;10.948;2022-09-09T03:50:02;0.68;;;0.68;;
26540;SDS011;14206;50.202;10.948;2022-09-09T03:52:33;0.68;;;0.68;;
26540;SDS011;14206;50.202;10.948;2022-09-09T03:55:02;0.70;;;0.70;;
26540;SDS011;14206;50.202;10.948;2022-09-09T03:57:29;1.35;;;0.63;;
26540;SDS011;14206;50.202;10.948;2022-09-09T03:59:57;0.60;;;0.60;;
26540;SDS011;14206;50.202;10.948;2022-09-09T04:02:31;0.60;;;0.60;;
26540;SDS011;14206;50.202;10.948;2022-09-09T04:04:57;1.20;;;0.57;;
26540;SDS011;14206;50.202;10.948;2022-09-09T04:07:26;0.63;;;0.52;;
26540;SDS011;14206;50.202;10.948;2022-09-09T04:09:55;0.80;;;0.50;;
26540;SDS011;14206;50.202;10.948;2022-09-09T04:12:21;0.70;;;0.68;;
26540;SDS011;14206;50.202;10.948;2022-09-09T04:14:49;1.45;;;0.90;;
26540;SDS011;14206;50.202;10.948;2022-09-09T04:17:15;1.60;;;1.17;;
26540;SDS011;14206;50.202;10.948;2022-09-09T04:19:43;2.05;;;1.15;;
26540;SDS011;14206;50.202;10.948;2022-09-09T04:22:10;0.95;;;0.82;;
26540;SDS011;14206;50.202;10.948;2022-09-09T04:24:37;1.63;;;0.88;;
26540;SDS011;14206;50.202;10.948;2022-09-09T04:27:04;1.13;;;0.80;;
26540;SDS011;14206;50.202;10.948;2022-09-09T04:29:33;1.23;;;0.70;;
26540;SDS011;14206;50.202;10.948;2022-09-09T04:32:00;0.93;;;0.80;;
26540;SDS011;14206;50.202;10.948;2022-09-09T04:34:28;0.98;;;0.70;;
26540;SDS011;14206;50.202;10.948;2022-09-09T04:36:56;1.10;;;0.73;;
26540;SDS011;14206;50.202;10.948;2022-09-09T04:39:26;1.27;;;0.70;;
26540;SDS011;14206;50.202;10.948;2022-09-09T04:41:54;1.33;;;0.70;;
26540;SDS011;14206;50.202;10.948;2022-09-09T04:44:22;0.57;;;0.57;;
26540;SDS011;14206;50.202;10.948;2022-09-09T04:46:49;1.35;;;0.75;;
26540;SDS011;14206;50.202;10.948;2022-09-09T04:49:16;0.60;;;0.60;;
26540;SDS011;14206;50.202;10.948;2022-09-09T04:51:44;0.55;;;0.55;;
26540;SDS011;14206;50.202;10.948;2022-09-09T04:54:13;1.05;;;0.80;;
26540;SDS011;14206;50.202;10.948;2022-09-09T04:56:42;0.63;;;0.60;;
26540;SDS011;14206;50.202;10.948;2022-09-09T04:59:10;0.68;;;0.60;;
26540;SDS011;14206;50.202;10.948;2022-09-09T05:01:46;0.57;;;0.52;;
26540;SDS011;14206;50.202;10.948;2022-09-09T05:04:25;0.60;;;0.57;;
26540;SDS011;14206;50.202;10.948;2022-09-09T05:06:53;0.85;;;0.60;;
26540;SDS011;14206;50.202;10.948;2022-09-09T05:09:22;0.57;;;0.57;;
26540;SDS011;14206;50.202;10.948;2022-09-09T05:11:49;1.73;;;0.60;;
26540;SDS011;14206;50.202;10.948;2022-09-09T05:14:23;0.60;;;0.60;;
26540;SDS011;14206;50.202;10.948;2022-09-09T05:16:50;0.60;;;0.60;;
26540;SDS011;14206;50.202;10.948;2022-09-09T05:19:17;1.20;;;0.70;;
26540;SDS011;14206;50.202;10.948;2022-09-09T05:21:47;1.02;;;0.60;;
26540;SDS011;14206;50.202;10.948;2022-09-09T05:24:17;0.60;;;0.60;;
26540;SDS011;14206;50.202;10.948;2022-09-09T05:26:46;1.30;;;0.70;;
26540;SDS011;14206;50.202;10.948;2022-09-09T05:29:13;0.60;;;0.60;;
26540;SDS011;14206;50.202;10.948;2022-09-09T05:31:40;0.65;;;0.65;;
26540;SDS011;14206;50.202;10.948;2022-09-09T05:34:12;0.85;;;0.68;;
26540;SDS011;14206;50.202;10.948;2022-09-09T05:36:39;0.88;;;0.70;;
26540;SDS011;14206;50.202;10.948;2022-09-09T05:39:07;0.93;;;0.50;;
26540;SDS011;14206;50.202;10.948;2022-09-09T05:41:34;0.85;;;0.60;;
26540;SDS011;14206;50.202;10.948;2022-09-09T05:44:03;0.65;;;0.65;;
26540;SDS011;14206;50.202;10.948;2022-09-09T05:46:34;2.35;;;1.20;;
26540;SDS011;14206;50.202;10.948;2022-09-09T05:49:02;1.27;;;1.10;;
26540;SDS011;14206;50.202;10.948;2022-09-09T05:51:32;0.93;;;0.93;;
26540;SDS011;14206;50.202;10.948;2022-09-09T05:54:07;3.85;;;2.45;;
26540;SDS011;14206;50.202;10.948;2022-09-09T05:56:38;3.45;;;1.80;;
26540;SDS011;14206;50.202;10.948;2022-09-09T05:59:06;1.98;;;1.50;;
26540;SDS011;14206;50.202;10.948;2022-09-09T06:01:34;2.95;;;1.33;;
26540;SDS011;14206;50.202;10.948;2022-09-09T06:04:10;2.70;;;1.30;;
26540;SDS011;14206;50.202;10.948;2022-09-09T06:06:38;0.98;;;0.88;;
26540;SDS011;14206;50.202;10.948;2022-09-09T06:09:11;0.85;;;0.80;;
26540;SDS011;14206;50.202;10.948;2022-09-09T06:11:41;0.85;;;0.73;;
26540;SDS011;14206;50.202;10.948;2022-09-09T06:14:09;1.10;;;0.70;;
26540;SDS011;14206;50.202;10.948;2022-09-09T06:16:37;2.15;;;0.80;;
26540;SDS011;14206;50.202;10.948;2022-09-09T06:19:11;1.75;;;0.77;;
26540;SDS011;14206;50.202;10.948;2022-09-09T06:21:39;0.90;;;0.70;;
26540;SDS011;14206;50.202;10.948;2022-09-09T06:24:11;1.48;;;0.85;;
26540;SDS011;14206;50.202;10.948;2022-09-09T06:26:41;0.80;;;0.60;;
26540;SDS011;14206;50.202;10.948;2022-09-09T06:29:10;0.80;;;0.68;;
26540;SDS011;14206;50.202;10.948;2022-09-09T06:31:38;0.75;;;0.70;;
26540;SDS011;14206;50.202;10.948;2022-09-09T06:34:19;0.82;;;0.70;;
26540;SDS011;14206;50.202;10.948;2022-09-09T06:36:50;0.88;;;0.80;;
26540;SDS011;14206;50.202;10.948;2022-09-09T06:39:18;0.80;;;0.80;;
26540;SDS011;14206;50.202;10.948;2022-09-09T06:41:45;1.05;;;0.80;;
26540;SDS011;14206;50.202;10.948;2022-09-09T06:44:32;2.05;;;0.82;;
26540;SDS011;14206;50.202;10.948;2022-09-09T06:47:05;1.20;;;0.90;;
26540;SDS011;14206;50.202;10.948;2022-09-09T06:49:32;0.93;;;0.75;;
26540;SDS011;14206;50.202;10.948;2022-09-09T06:52:04;2.63;;;1.10;;
26540;SDS011;14206;50.202;10.948;2022-09-09T06:54:31;1.08;;;0.90;;
26540;SDS011;14206;50.202;10.948;2022-09-09T06:56:59;1.45;;;0.90;;
26540;SDS011;14206;50.202;10.948;2022-09-09T06:59:50;1.52;;;0.90;;
26540;SDS011;14206;50.202;10.948;2022-09-09T07:02:18;0.70;;;0.70;;
26540;SDS011;14206;50.202;10.948;2022-09-09T07:04:45;0.82;;;0.80;;
26540;SDS011;14206;50.202;10.948;2022-09-09T07:07:13;1.58;;;0.70;;
26540;SDS011;14206;50.202;10.948;2022-09-09T07:09:42;1.55;;;0.90;;
26540;SDS011;14206;50.202;10.948;2022-09-09T07:12:16;1.10;;;0.73;;
26540;SDS011;14206;50.202;10.948;2022-09-09T07:14:54;1.10;;;0.88;;
26540;SDS011;14206;50.202;10.948;2022-09-09T07:17:21;1.90;;;0.90;;
26540;SDS011;14206;50.202;10.948;2022-09-09T07:19:48;3.20;;;1.38;;
26540;SDS011;14206;50.202;10.948;2022-09-09T07:22:16;1.17;;;1.00;;
26540;SDS011;14206;50.202;10.948;2022-09-09T07:24:43;1.35;;;0.95;;
26540;SDS011;14206;50.202;10.948;2022-09-09T07:27:12;1.55;;;0.82;;
26540;SDS011;14206;50.202;10.948;2022-09-09T07:29:39;1.15;;;0.70;;
26540;SDS011;14206;50.202;10.948;2022-09-09T07:32:07;1.75;;;0.90;;
26540;SDS011;14206;50.202;10.948;2022-09-09T07:34:36;2.03;;;1.00;;
26540;SDS011;14206;50.202;10.948;2022-09-09T07:37:04;1.77;;;0.82;;
26540;SDS011;14206;50.202;10.948;2022-09-09T07:39:32;2.83;;;1.10;;
26540;SDS011;14206;50.202;10.948;2022-09-09T07:42:03;1.13;;;0.88;;
26540;SDS011;14206;50.202;10.948;2022-09-09T07:44:31;1.38;;;0.90;;
26540;SDS011;14206;50.202;10.948;2022-09-09T07:47:05;2.70;;;0.90;;
26540;SDS011;14206;50.202;10.948;2022-09-09T07:49:40;3.17;;;1.10;;
26540;SDS011;14206;50.202;10.948;2022-09-09T07:52:08;1.95;;;1.00;;
26540;SDS011;14206;50.202;10.948;2022-09-09T07:54:37;1.05;;;0.85;;
26540;SDS011;14206;50.202;10.948;2022-09-09T07:57:05;1.67;;;0.98;;
26540;SDS011;14206;50.202;10.948;2022-09-09T07:59:34;1.40;;;0.93;;
26540;SDS011;14206;50.202;10.948;2022-09-09T08:02:02;1.83;;;0.90;;
26540;SDS011;14206;50.202;10.948;2022-09-09T08:04:31;1.70;;;1.15;;
26540;SDS011;14206;50.202;10.948;2022-09-09T08:06:59;1.50;;;0.80;;
26540;SDS011;14206;50.202;10.948;2022-09-09T08:09:34;1.30;;;0.80;;
26540;SDS011;14206;50.202;10.948;2022-09-09T08:12:10;2.15;;;0.80;;
26540;SDS011;14206;50.202;10.948;2022-09-09T08:14:39;2.08;;;0.90;;
26540;SDS011;14206;50.202;10.948;2022-09-09T08:17:06;2.42;;;1.00;;
26540;SDS011;14206;50.202;10.948;2022-09-09T08:19:33;1.75;;;0.90;;
26540;SDS011;14206;50.202;10.948;2022-09-09T08:22:08;2.35;;;0.90;;
26540;SDS011;14206;50.202;10.948;2022-09-09T08:24:38;3.15;;;1.20;;
26540;SDS011;14206;50.202;10.948;2022-09-09T08:27:10;2.03;;;0.90;;
26540;SDS011;14206;50.202;10.948;2022-09-09T08:29:37;2.03;;;0.65;;
26540;SDS011;14206;50.202;10.948;2022-09-09T08:32:05;2.25;;;0.60;;
26540;SDS011;14206;50.202;10.948;2022-09-09T08:34:33;0.98;;;0.68;;
26540;SDS011;14206;50.202;10.948;2022-09-09T08:37:05;1.35;;;0.70;;
26540;SDS011;14206;50.202;10.948;2022-09-09T08:39:36;1.48;;;0.70;;
26540;SDS011;14206;50.202;10.948;2022-09-09T08:48:07;1.30;;;0.90;;
26540;SDS011;14206;50.202;10.948;2022-09-09T08:50:36;1.65;;;0.70;;
26540;SDS011;14206;50.202;10.948;2022-09-09T08:53:29;0.88;;;0.70;;
26540;SDS011;14206;50.202;10.948;2022-09-09T08:56:09;1.88;;;0.80;;
26540;SDS011;14206;50.202;10.948;2022-09-09T08:58:50;1.58;;;0.73;;
26540;SDS011;14206;50.202;10.948;2022-09-09T09:04:28;2.42;;;0.70;;
26540;SDS011;14206;50.202;10.948;2022-09-09T09:07:31;1.27;;;0.75;;
26540;SDS011;14206;50.202;10.948;2022-09-09T09:13:04;1.52;;;0.65;;
26540;SDS011;14206;50.202;10.948;2022-09-09T09:15:42;1.73;;;0.73;;
26540;SDS011;14206;50.202;10.948;2022-09-09T09:18:12;2.58;;;1.00;;
26540;SDS011;14206;50.202;10.948;2022-09-09T09:20:49;2.00;;;0.93;;
26540;SDS011;14206;50.202;10.948;2022-09-09T09:23:22;1.77;;;0.60;;
26540;SDS011;14206;50.202;10.948;2022-09-09T09:25:55;2.05;;;0.75;;
26540;SDS011;14206;50.202;10.948;2022-09-09T09:28:27;1.88;;;0.70;;
26540;SDS011;14206;50.202;10.948;2022-09-09T09:31:08;3.28;;;0.80;;
26540;SDS011;14206;50.202;10.948;2022-09-09T09:36:19;3.58;;;0.95;;
26540;SDS011;14206;50.202;10.948;2022-09-09T09:38:58;0.95;;;0.60;;
26540;SDS011;14206;50.202;10.948;2022-09-09T09:42:15;1.50;;;0.60;;
26540;SDS011;14206;50.202;10.948;2022-09-09T09:44:50;1.90;;;0.50;;
26540;SDS011;14206;50.202;10.948;2022-09-09T09:47:22;1.25;;;0.50;;
26540;SDS011;14206;50.202;10.948;2022-09-09T09:50:18;1.42;;;0.60;;
26540;SDS011;14206;50.202;10.948;2022-09-09T09:52:55;1.00;;;0.50;;
26540;SDS011;14206;50.202;10.948;2022-09-09T09:55:26;1.85;;;0.50;;
26540;SDS011;14206;50.202;10.948;2022-09-09T09:58:06;1.42;;;0.60;;
26540;SDS011;14206;50.202;10.948;2022-09-09T10:00:48;1.20;;;0.52;;
26540;SDS011;14206;50.202;10.948;2022-09-09T10:03:25;3.08;;;0.70;;
26540;SDS011;14206;50.202;10.948;2022-09-09T10:05:57;1.55;;;0.60;;
26540;SDS011;14206;50.202;10.948;2022-09-09T10:08:25;2.47;;;0.80;;
26540;SDS011;14206;50.202;10.948;2022-09-09T10:10:59;2.15;;;0.70;;
26540;SDS011;14206;50.202;10.948;2022-09-09T10:19:15;2.40;;;0.90;;
26540;SDS011;14206;50.202;10.948;2022-09-09T10:24:34;2.05;;;0.85;;
26540;SDS011;14206;50.202;10.948;2022-09-09T10:30:06;2.10;;;0.70;;
26540;SDS011;14206;50.202;10.948;2022-09-09T10:32:49;1.55;;;0.52;;
26540;SDS011;14206;50.202;10.948;2022-09-09T10:38:12;1.23;;;0.50;;
26540;SDS011;14206;50.202;10.948;2022-09-09T10:40:42;3.60;;;1.13;;
26540;SDS011;14206;50.202;10.948;2022-09-09T10:51:40;1.83;;;0.80;;
26540;SDS011;14206;50.202;10.948;2022-09-09T10:57:11;2.70;;;0.60;;
26540;SDS011;14206;50.202;10.948;2022-09-09T10:59:55;1.13;;;0.40;;
26540;SDS011;14206;50.202;10.948;2022-09-09T11:02:31;2.97;;;0.80;;
26540;SDS011;14206;50.202;10.948;2022-09-09T11:07:39;1.33;;;0.63;;
26540;SDS011;14206;50.202;10.948;2022-09-09T11:13:23;1.50;;;0.80;;
26540;SDS011;14206;50.202;10.948;2022-09-09T11:15:53;1.58;;;0.60;;
26540;SDS011;14206;50.202;10.948;2022-09-09T11:18:26;0.85;;;0.47;;
26540;SDS011;14206;50.202;10.948;2022-09-09T11:21:00;1.95;;;0.75;;
26540;SDS011;14206;50.202;10.948;2022-09-09T11:23:36;2.83;;;0.57;;
26540;SDS011;14206;50.202;10.948;2022-09-09T11:26:10;1.27;;;0.65;;
26540;SDS011;14206;50.202;10.948;2022-09-09T11:29:22;1.63;;;0.70;;
26540;SDS011;14206;50.202;10.948;2022-09-09T11:32:01;2.42;;;0.75;;
26540;SDS011;14206;50.202;10.948;2022-09-09T11:39:57;0.95;;;0.60;;
26540;SDS011;14206;50.202;10.948;2022-09-09T11:44:57;1.70;;;0.57;;
26540;SDS011;14206;50.202;10.948;2022-09-09T11:47:40;0.55;;;0.40;;
26540;SDS011;14206;50.202;10.948;2022-09-09T11:52:45;4.30;;;0.80;;
26540;SDS011;14206;50.202;10.948;2022-09-09T11:55:26;2.08;;;0.80;;
26540;SDS011;14206;50.202;10.948;2022-09-09T11:58:14;1.42;;;0.60;;
26540;SDS011;14206;50.202;10.948;2022-09-09T12:00:48;2.10;;;0.70;;
26540;SDS011;14206;50.202;10.948;2022-09-09T12:03:32;1.25;;;0.60;;
26540;SDS011;14206;50.202;10.948;2022-09-09T12:06:26;2.35;;;0.60;;
26540;SDS011;14206;50.202;10.948;2022-09-09T12:11:49;2.25;;;0.80;;
26540;SDS011;14206;50.202;10.948;2022-09-09T12:17:24;2.53;;;1.00;;
26540;SDS011;14206;50.202;10.948;2022-09-09T12:22:40;2.92;;;0.63;;
26540;SDS011;14206;50.202;10.948;2022-09-09T12:28:05;1.42;;;0.63;;
26540;SDS011;14206;50.202;10.948;2022-09-09T12:30:45;0.70;;;0.47;;
26540;SDS011;14206;50.202;10.948;2022-09-09T12:33:22;0.73;;;0.40;;
26540;SDS011;14206;50.202;10.948;2022-09-09T12:35:58;1.25;;;0.40;;
26540;SDS011;14206;50.202;10.948;2022-09-09T12:38:30;1.55;;;0.50;;
26540;SDS011;14206;50.202;10.948;2022-09-09T12:41:04;1.05;;;0.40;;
26540;SDS011;14206;50.202;10.948;2022-09-09T12:43:31;1.40;;;0.32;;
26540;SDS011;14206;50.202;10.948;2022-09-09T12:46:03;1.38;;;0.38;;
26540;SDS011;14206;50.202;10.948;2022-09-09T12:48:36;1.30;;;0.50;;
26540;SDS011;14206;50.202;10.948;2022-09-09T12:54:04;1.13;;;0.45;;
26540;SDS011;14206;50.202;10.948;2022-09-09T12:56:31;2.28;;;0.50;;
26540;SDS011;14206;50.202;10.948;2022-09-09T12:58:59;2.45;;;0.50;;
26540;SDS011;14206;50.202;10.948;2022-09-09T13:01:55;1.65;;;0.40;;
26540;SDS011;14206;50.202;10.948;2022-09-09T13:04:23;1.45;;;0.50;;
26540;SDS011;14206;50.202;10.948;2022-09-09T13:06:49;0.93;;;0.43;;
26540;SDS011;14206;50.202;10.948;2022-09-09T13:09:18;1.33;;;0.30;;
26540;SDS011;14206;50.202;10.948;2022-09-09T13:12:07;0.45;;;0.10;;
26540;SDS011;14206;50.202;10.948;2022-09-09T13:14:50;0.80;;;0.35;;
26540;SDS011;14206;50.202;10.948;2022-09-09T13:17:23;0.90;;;0.50;;
26540;SDS011;14206;50.202;10.948;2022-09-09T13:19:53;1.57;;;0.60;;
26540;SDS011;14206;50.202;10.948;2022-09-09T13:25:13;0.93;;;0.28;;
26540;SDS011;14206;50.202;10.948;2022-09-09T13:27:57;0.13;;;0.13;;
26540;SDS011;14206;50.202;10.948;2022-09-09T13:33:19;0.95;;;0.43;;
26540;SDS011;14206;50.202;10.948;2022-09-09T13:35:54;1.38;;;0.50;;
26540;SDS011;14206;50.202;10.948;2022-09-09T13:38:25;0.95;;;0.30;;
26540;SDS011;14206;50.202;10.948;2022-09-09T13:41:08;1.40;;;0.40;;
26540;SDS011;14206;50.202;10.948;2022-09-09T13:43:37;1.42;;;0.50;;
26540;SDS011;14206;50.202;10.948;2022-09-09T13:46:25;0.75;;;0.40;;
26540;SDS011;14206;50.202;10.948;2022-09-09T13:48:59;0.50;;;0.40;;
26540;SDS011;14206;50.202;10.948;2022-09-09T13:51:37;0.95;;;0.30;;
26540;SDS011;14206;50.202;10.948;2022-09-09T13:54:14;0.82;;;0.35;;
26540;SDS011;14206;50.202;10.948;2022-09-09T13:56:42;0.70;;;0.30;;
26540;SDS011;14206;50.202;10.948;2022-09-09T13:59:13;1.23;;;0.30;;
26540;SDS011;14206;50.202;10.948;2022-09-09T14:01:42;2.55;;;0.57;;
26540;SDS011;14206;50.202;10.948;2022-09-09T14:04:10;1.38;;;0.30;;
26540;SDS011;14206;50.202;10.948;2022-09-09T14:06:37;0.65;;;0.43;;
26540;SDS011;14206;50.202;10.948;2022-09-09T14:09:06;0.93;;;0.30;;
26540;SDS011;14206;50.202;10.948;2022-09-09T14:11:33;2.05;;;0.52;;
26540;SDS011;14206;50.202;10.948;2022-09-09T14:14:00;1.38;;;0.47;;
26540;SDS011;14206;50.202;10.948;2022-09-09T14:16:30;1.17;;;0.40;;
26540;SDS011;14206;50.202;10.948;2022-09-09T14:18:57;1.63;;;0.50;;
26540;SDS011;14206;50.202;10.948;2022-09-09T14:21:25;0.25;;;0.20;;
26540;SDS011;14206;50.202;10.948;2022-09-09T14:23:57;3.28;;;0.65;;
26540;SDS011;14206;50.202;10.948;2022-09-09T14:26:35;0.85;;;0.38;;
26540;SDS011;14206;50.202;10.948;2022-09-09T14:29:03;1.38;;;0.40;;
26540;SDS011;14206;50.202;10.948;2022-09-09T14:31:30;1.30;;;0.40;;
26540;SDS011;14206;50.202;10.948;2022-09-09T14:33:57;1.00;;;0.40;;
26540;SDS011;14206;50.202;10.948;2022-09-09T14:36:25;0.70;;;0.40;;
26540;SDS011;14206;50.202;10.948;2022-09-09T14:38:51;1.83;;;0.50;;
26540;SDS011;14206;50.202;10.948;2022-09-09T14:41:19;2.20;;;0.60;;
26540;SDS011;14206;50.202;10.948;2022-09-09T14:43:48;1.38;;;0.43;;
26540;SDS011;14206;50.202;10.948;2022-09-09T14:46:16;1.50;;;0.40;;
26540;SDS011;14206;50.202;10.948;2022-09-09T14:48:45;1.05;;;0.47;;
26540;SDS011;14206;50.202;10.948;2022-09-09T14:51:18;1.23;;;0.50;;
26540;SDS011;14206;50.202;10.948;2022-09-09T14:53:50;0.80;;;0.40;;
26540;SDS011;14206;50.202;10.948;2022-09-09T14:56:22;2.17;;;0.60;;
26540;SDS011;14206;50.202;10.948;2022-09-09T14:58:54;0.60;;;0.30;;
26540;SDS011;14206;50.202;10.948;2022-09-09T15:01:22;0.45;;;0.30;;
26540;SDS011;14206;50.202;10.948;2022-09-09T15:03:51;1.00;;;0.40;;
26540;SDS011;14206;50.202;10.948;2022-09-09T15:06:24;2.90;;;0.70;;
26540;SDS011;14206;50.202;10.948;2022-09-09T15:08:54;1.10;;;0.40;;
26540;SDS011;14206;50.202;10.948;2022-09-09T15:11:24;1.40;;;0.60;;
26540;SDS011;14206;50.202;10.948;2022-09-09T15:13:54;0.75;;;0.35;;
26540;SDS011;14206;50.202;10.948;2022-09-09T15:16:21;0.68;;;0.38;;
26540;SDS011;14206;50.202;10.948;2022-09-09T15:18:50;1.08;;;0.50;;
26540;SDS011;14206;50.202;10.948;2022-09-09T15:21:26;1.45;;;0.50;;
26540;SDS011;14206;50.202;10.948;2022-09-09T15:23:55;0.90;;;0.45;;
26540;SDS011;14206;50.202;10.948;2022-09-09T15:26:23;1.38;;;0.50;;
26540;SDS011;14206;50.202;10.948;2022-09-09T15:28:51;0.88;;;0.50;;
26540;SDS011;14206;50.202;10.948;2022-09-09T15:31:19;0.73;;;0.50;;
26540;SDS011;14206;50.202;10.948;2022-09-09T15:33:54;1.33;;;0.40;;
26540;SDS011;14206;50.202;10.948;2022-09-09T15:36:40;2.67;;;0.60;;
26540;SDS011;14206;50.202;10.948;2022-09-09T15:39:16;1.77;;;0.60;;
26540;SDS011;14206;50.202;10.948;2022-09-09T15:41:47;0.50;;;0.30;;
26540;SDS011;14206;50.202;10.948;2022-09-09T15:44:14;1.90;;;0.63;;
26540;SDS011;14206;50.202;10.948;2022-09-09T15:46:43;1.67;;;0.60;;
26540;SDS011;14206;50.202;10.948;2022-09-09T15:49:26;2.13;;;0.60;;
26540;SDS011;14206;50.202;10.948;2022-09-09T15:51:54;1.23;;;0.50;;
26540;SDS011;14206;50.202;10.948;2022-09-09T15:54:24;1.65;;;0.60;;
26540;SDS011;14206;50.202;10.948;2022-09-09T15:56:53;1.27;;;0.50;;
26540;SDS011;14206;50.202;10.948;2022-09-09T15:59:23;0.98;;;0.50;;
26540;SDS011;14206;50.202;10.948;2022-09-09T16:01:50;0.40;;;0.30;;
26540;SDS011;14206;50.202;10.948;2022-09-09T16:04:18;1.00;;;0.50;;
26540;SDS011;14206;50.202;10.948;2022-09-09T16:06:55;2.63;;;0.68;;
26540;SDS011;14206;50.202;10.948;2022-09-09T16:09:26;2.65;;;0.50;;
26540;SDS011;14206;50.202;10.948;2022-09-09T16:11:57;2.08;;;1.00;;
26540;SDS011;14206;50.202;10.948;2022-09-09T16:14:26;0.90;;;0.50;;
26540;SDS011;14206;50.202;10.948;2022-09-09T16:16:54;2.47;;;0.70;;
26540;SDS011;14206;50.202;10.948;2022-09-09T16:19:22;2.22;;;0.50;;
26540;SDS011;14206;50.202;10.948;2022-09-09T16:21:48;1.75;;;0.52;;
26540;SDS011;14206;50.202;10.948;2022-09-09T16:24:17;2.25;;;0.47;;
26540;SDS011;14206;50.202;10.948;2022-09-09T16:26:49;1.38;;;0.50;;
26540;SDS011;14206;50.202;10.948;2022-09-09T16:29:18;2.13;;;0.60;;
26540;SDS011;14206;50.202;10.948;2022-09-09T16:31:45;0.85;;;0.35;;
26540;SDS011;14206;50.202;10.948;2022-09-09T16:34:13;1.58;;;0.50;;
26540;SDS011;14206;50.202;10.948;2022-09-09T16:36:41;1.45;;;0.50;;
26540;SDS011;14206;50.202;10.948;2022-09-09T16:39:14;1.70;;;0.45;;
26540;SDS011;14206;50.202;10.948;2022-09-09T16:41:43;1.13;;;0.50;;
26540;SDS011;14206;50.202;10.948;2022-09-09T16:44:11;1.45;;;0.60;;
26540;SDS011;14206;50.202;10.948;2022-09-09T16:46:42;1.63;;;0.60;;
26540;SDS011;14206;50.202;10.948;2022-09-09T16:49:17;1.45;;;0.60;;
26540;SDS011;14206;50.202;10.948;2022-09-09T16:51:48;3.10;;;0.70;;
26540;SDS011;14206;50.202;10.948;2022-09-09T16:54:16;1.38;;;0.60;;
26540;SDS011;14206;50.202;10.948;2022-09-09T16:56:45;1.05;;;0.40;;
26540;SDS011;14206;50.202;10.948;2022-09-09T16:59:14;1.20;;;0.43;;
26540;SDS011;14206;50.202;10.948;2022-09-09T17:01:43;3.03;;;0.60;;
26540;SDS011;14206;50.202;10.948;2022-09-09T17:04:17;1.83;;;0.73;;
26540;SDS011;14206;50.202;10.948;2022-09-09T17:06:50;1.30;;;0.40;;
26540;SDS011;14206;50.202;10.948;2022-09-09T17:09:18;1.30;;;0.35;;
26540;SDS011;14206;50.202;10.948;2022-09-09T17:11:47;0.95;;;0.40;;
26540;SDS011;14206;50.202;10.948;2022-09-09T17:14:17;1.23;;;0.52;;
26540;SDS011;14206;50.202;10.948;2022-09-09T17:16:45;0.63;;;0.30;;
26540;SDS011;14206;50.202;10.948;2022-09-09T17:19:13;1.50;;;0.50;;
26540;SDS011;14206;50.202;10.948;2022-09-09T17:21:40;1.10;;;0.50;;
26540;SDS011;14206;50.202;10.948;2022-09-09T17:24:27;1.65;;;0.50;;
26540;SDS011;14206;50.202;10.948;2022-09-09T17:26:58;2.30;;;0.50;;